Aérodrome :
LOGIN :

S'inscrire | Disclaimer

   EN    FR    IT 

 










Légende :    VFR   VFR Marginal   IFR   IFR Intensif   IFR Très Intensif
Visi : 
Plafond : 
>= 8 km
>= 3000ft
5 à 8 km
1000 à 3000 ft
1500m à 5 km
500 à 1000 ft
800 à 1500m
200 à 500 ft
< 800m
< 200 ft
Symboles :   Orages  Brouillard  Fortes neiges  Fortes précipitations  Vent > 20 kt
SIGMETs :   Divers  Orages  Givrage  Turbulence  Onde Orograph.  Cendres Volcan.






- Altitude de l'aérodrome : 306 ft
- Code IATA : EMA


EGNX - Nottingham East Midlands

DERNIER METAR :
  • 150520Z 22016KT CAVOK 03/00 Q0986

METARs EXPIRÉS :
  • 150450Z 22016KT CAVOK 03/00 Q0985
  • 150420Z 23016KT CAVOK 03/00 Q0985
  • 150350Z 24019KT 9999 FEW022 03/01 Q0984
  • 150320Z 24020KT 9999 BKN023 04/01 Q0984
  • 150250Z 23021KT 9999 FEW022 04/01 Q0983

TAF TAF EGNX
Valide du 15 à 06h jusqu'au 16 à 06h UTC


150506Z 1506/1606 21014KT 9999 FEW030
PROB30
TEMPO 1514/1603 23018G30KT 6000 SHRA BKN008
ATIS : +44 1332 852 852 (ext 3201)



MET'MAP, la Météo Aéronautique d'un coup d'oeil ! - Copyright ORBIFLY Décembre 2007 - Disclaimer

ORBIFLY MET'MAP TEAM :

Programmation & Développement : Alexandra Zaïnal
Sur une idée originale de : Baudouin d'Aumeries
Assistance à la programmation : Marc-Olivier Méhu
Soutien technique & logistique : Manuel Goepfert

Contact : metmap@orbifly.com




SOURCES & CREDITS :

   NOAA